Time;durP1;ratioP1;P1;durP2;ratioP2;P2;SDS_P1;SDS_P2;PMS_P1;PMS_P2;Temp;Humidity;BMP_temperature;BMP_pressure;BME280_temperature;BME280_humidity;BME280_pressure;Samples;Min_cycle;Max_cycle;Signal;HPM_P1;HPM_P2
2023/01/24 00:00:39;;;;;;;26.65;13.18;;;;;;;;;;5072634;28;20498;-60
2023/01/24 00:03:11;;;;;;;29.08;15.27;;;;;;;;;;5072292;28;20116;-61
2023/01/24 00:05:37;;;;;;;30.90;13.88;;;;;;;;;;5072564;28;20082;-60
2023/01/24 00:08:04;;;;;;;26.90;14.32;;;;;;;;;;5072424;28;20028;-60
2023/01/24 00:10:31;;;;;;;31.35;14.68;;;;;;;;;;5072398;28;20028;-60
2023/01/24 00:12:58;;;;;;;26.00;14.98;;;;;;;;;;5072242;28;20516;-60
2023/01/24 00:15:24;;;;;;;30.90;15.18;;;;;;;;;;5072301;28;20027;-60
2023/01/24 00:17:50;;;;;;;27.73;14.32;;;;;;;;;;5072408;28;20032;-60
2023/01/24 00:20:16;;;;;;;25.45;13.30;;;;;;;;;;5072451;28;20028;-61
2023/01/24 00:22:42;;;;;;;24.60;14.05;;;;;;;;;;5072268;28;20024;-60
2023/01/24 00:25:09;;;;;;;27.67;13.10;;;;;;;;;;5072435;28;20454;-60
2023/01/24 00:27:35;;;;;;;29.45;14.70;;;;;;;;;;5072070;28;20032;-60
2023/01/24 00:30:01;;;;;;;32.92;14.40;;;;;;;;;;5072072;28;20458;-60
2023/01/24 00:32:28;;;;;;;24.05;13.75;;;;;;;;;;5071059;28;20025;-60
2023/01/24 00:34:54;;;;;;;27.92;13.60;;;;;;;;;;5072007;28;20154;-60
2023/01/24 00:37:20;;;;;;;27.92;12.93;;;;;;;;;;5072039;28;20491;-60
2023/01/24 00:39:46;;;;;;;28.67;13.48;;;;;;;;;;5070393;28;20029;-60
2023/01/24 00:42:12;;;;;;;21.08;12.10;;;;;;;;;;5072251;28;20114;-60
2023/01/24 00:44:38;;;;;;;21.95;12.43;;;;;;;;;;5072249;28;20028;-60
2023/01/24 00:47:04;;;;;;;23.33;13.00;;;;;;;;;;5072286;28;20024;-60
2023/01/24 00:49:30;;;;;;;25.80;11.30;;;;;;;;;;5071989;28;20028;-60
2023/01/24 00:51:57;;;;;;;27.33;11.13;;;;;;;;;;5071644;28;20052;-60
2023/01/24 00:54:23;;;;;;;20.63;10.68;;;;;;;;;;5070530;28;20452;-60
2023/01/24 00:56:50;;;;;;;19.27;11.23;;;;;;;;;;5070547;28;20398;-60
2023/01/24 00:59:16;;;;;;;20.08;10.85;;;;;;;;;;5072031;28;20021;-60
2023/01/24 01:01:42;;;;;;;18.23;10.32;;;;;;;;;;5070665;28;20032;-60
2023/01/24 01:04:10;;;;;;;25.05;9.90;;;;;;;;;;5071604;28;20035;-60
2023/01/24 01:06:36;;;;;;;22.83;9.93;;;;;;;;;;5072664;28;20027;-60
2023/01/24 01:09:02;;;;;;;22.25;9.93;;;;;;;;;;5075488;28;20036;-60
2023/01/24 01:11:29;;;;;;;17.40;9.45;;;;;;;;;;5075861;28;20033;-60
2023/01/24 01:13:58;;;;;;;17.67;9.32;;;;;;;;;;5074329;28;20406;-60
2023/01/24 01:16:24;;;;;;;20.98;10.75;;;;;;;;;;5075853;28;20021;-61
2023/01/24 01:18:53;;;;;;;17.42;10.60;;;;;;;;;;5075487;28;20512;-60
2023/01/24 01:21:20;;;;;;;18.65;10.60;;;;;;;;;;5074517;28;20028;-60
2023/01/24 01:23:46;;;;;;;18.17;10.25;;;;;;;;;;5074089;28;20413;-60
2023/01/24 01:26:17;;;;;;;19.13;11.00;;;;;;;;;;5074301;28;20044;-60
2023/01/24 01:28:43;;;;;;;26.17;11.55;;;;;;;;;;5074256;28;20454;-60
2023/01/24 01:31:09;;;;;;;21.70;10.85;;;;;;;;;;5075318;28;20028;-61
2023/01/24 01:33:35;;;;;;;21.48;11.25;;;;;;;;;;5075586;28;20029;-60
2023/01/24 01:36:02;;;;;;;21.48;11.98;;;;;;;;;;5075262;28;20440;-61
2023/01/24 01:38:31;;;;;;;19.58;11.60;;;;;;;;;;5075136;28;20086;-60
2023/01/24 01:40:58;;;;;;;25.48;12.20;;;;;;;;;;5074877;28;20048;-60
2023/01/24 01:43:26;;;;;;;24.30;12.93;;;;;;;;;;5074058;28;20036;-60
2023/01/24 01:45:53;;;;;;;24.52;11.32;;;;;;;;;;5073985;28;20035;-60
2023/01/24 01:48:27;;;;;;;23.15;11.77;;;;;;;;;;5075330;28;20433;-60
2023/01/24 01:50:57;;;;;;;24.73;11.95;;;;;;;;;;5074878;28;20493;-60
2023/01/24 01:53:24;;;;;;;25.77;11.95;;;;;;;;;;5073441;28;20031;-60
2023/01/24 01:55:54;;;;;;;23.00;12.00;;;;;;;;;;5073736;28;20036;-60
2023/01/24 01:58:21;;;;;;;24.40;12.80;;;;;;;;;;5073641;28;20482;-61
2023/01/24 02:00:50;;;;;;;19.67;10.32;;;;;;;;;;5074940;28;20439;-60
2023/01/24 02:06:02;;;;;;;25.67;13.00;;;;;;;;;;5074602;28;20034;-60
2023/01/24 02:08:29;;;;;;;24.50;12.73;;;;;;;;;;5074536;28;20024;-60
2023/01/24 02:11:43;;;;;;;23.40;12.85;;;;;;;;;;5074592;28;20502;-60
2023/01/24 02:13:45;;;;;;;20.10;11.65;;;;;;;;;;5060664;28;20048;-60
2023/01/24 02:16:12;;;;;;;21.58;12.00;;;;;;;;;;5074558;28;20028;-60
2023/01/24 02:18:40;;;;;;;22.55;13.10;;;;;;;;;;5072258;28;20032;-61
2023/01/24 02:21:14;;;;;;;21.02;11.77;;;;;;;;;;5074117;28;20024;-60
2023/01/24 02:23:44;;;;;;;21.50;11.57;;;;;;;;;;5074669;28;20025;-60
2023/01/24 02:26:15;;;;;;;22.67;11.25;;;;;;;;;;5074454;28;20479;-61
2023/01/24 02:28:43;;;;;;;22.02;10.65;;;;;;;;;;5074499;28;20454;-60
2023/01/24 02:31:09;;;;;;;21.98;10.50;;;;;;;;;;5074217;28;20071;-60
2023/01/24 02:33:35;;;;;;;16.48;10.75;;;;;;;;;;5056567;28;20040;-60
2023/01/24 02:36:20;;;;;;;22.50;12.65;;;;;;;;;;5073827;28;20521;-60
2023/01/24 02:38:49;;;;;;;25.40;12.25;;;;;;;;;;5072973;28;20036;-60
2023/01/24 02:41:17;;;;;;;22.73;11.93;;;;;;;;;;5074218;28;20420;-60
2023/01/24 02:43:46;;;;;;;16.92;10.65;;;;;;;;;;5073010;28;20075;-60
2023/01/24 02:46:12;;;;;;;25.23;12.00;;;;;;;;;;5072726;28;20028;-60
2023/01/24 02:48:38;;;;;;;16.85;10.45;;;;;;;;;;5074210;28;20375;-60
2023/01/24 02:53:49;;;;;;;17.67;10.57;;;;;;;;;;5073886;28;20020;-61
2023/01/24 02:59:00;;;;;;;18.73;10.90;;;;;;;;;;5072325;28;20177;-61
2023/01/24 03:01:30;;;;;;;20.60;10.63;;;;;;;;;;5072558;28;20501;-60
2023/01/24 03:03:58;;;;;;;16.55;9.35;;;;;;;;;;5072113;28;20383;-60
2023/01/24 03:06:24;;;;;;;16.20;10.10;;;;;;;;;;5073618;28;20035;-60
2023/01/24 03:08:51;;;;;;;15.27;9.30;;;;;;;;;;5072389;28;20036;-61
2023/01/24 03:11:23;;;;;;;18.47;9.33;;;;;;;;;;5072268;28;20024;-61
2023/01/24 03:35:58;;;;;;;17.45;9.77;;;;;;;;;;5071642;28;20057;-60
2023/01/24 03:41:13;;;;;;;13.43;8.73;;;;;;;;;;5071709;28;20052;-61
2023/01/24 03:43:41;;;;;;;16.35;8.63;;;;;;;;;;5071684;28;20447;-60
2023/01/24 03:46:10;;;;;;;15.93;9.80;;;;;;;;;;5071533;28;20460;-60
2023/01/24 03:48:50;;;;;;;17.98;9.65;;;;;;;;;;5071168;28;20059;-60
2023/01/24 03:54:03;;;;;;;15.05;8.52;;;;;;;;;;5071295;28;20027;-60
2023/01/24 03:56:38;;;;;;;19.38;8.68;;;;;;;;;;5071397;28;20063;-60
2023/01/24 03:59:05;;;;;;;17.15;10.23;;;;;;;;;;5071257;28;20469;-60
2023/01/24 04:01:34;;;;;;;19.58;9.88;;;;;;;;;;5071134;28;20027;-61
2023/01/24 04:05:12;;;;;;;20.20;10.27;;;;;;;;;;5058118;28;20451;-60
2023/01/24 04:07:17;;;;;;;19.75;10.02;;;;;;;;;;5071035;28;20043;-61
2023/01/24 04:09:43;;;;;;;18.27;9.52;;;;;;;;;;5072610;28;20154;-60
2023/01/24 04:12:09;;;;;;;21.27;10.73;;;;;;;;;;5072186;28;20592;-60
2023/01/24 04:14:36;;;;;;;18.98;10.43;;;;;;;;;;5072513;28;20028;-60
2023/01/24 04:17:07;;;;;;;17.10;10.30;;;;;;;;;;5070764;28;20549;-61
2023/01/24 04:19:40;;;;;;;24.75;11.48;;;;;;;;;;5058658;28;20065;-60
2023/01/24 04:22:07;;;;;;;22.58;11.45;;;;;;;;;;5064410;28;20037;-61
2023/01/24 04:24:35;;;;;;;25.58;11.13;;;;;;;;;;5059170;28;20032;-60
2023/01/24 04:27:01;;;;;;;20.88;11.30;;;;;;;;;;5064442;28;20040;-60
2023/01/24 04:29:37;;;;;;;23.52;11.07;;;;;;;;;;5071167;28;20070;-61
2023/01/24 04:32:05;;;;;;;19.52;11.40;;;;;;;;;;5104190;28;20059;-61
2023/01/24 04:34:38;;;;;;;21.13;10.70;;;;;;;;;;5075571;28;20028;-61
2023/01/24 04:37:09;;;;;;;25.23;11.18;;;;;;;;;;5075846;28;20044;-60
2023/01/24 04:39:36;;;;;;;24.35;12.95;;;;;;;;;;5071101;28;20045;-61
2023/01/24 04:42:11;;;;;;;25.17;11.27;;;;;;;;;;5070417;28;20124;-61
2023/01/24 04:44:39;;;;;;;24.67;11.82;;;;;;;;;;5070760;28;20138;-60
2023/01/24 04:47:06;;;;;;;23.17;11.10;;;;;;;;;;5067382;28;20016;-61
2023/01/24 04:49:32;;;;;;;24.98;12.85;;;;;;;;;;5077575;28;20119;-60
2023/01/24 04:51:58;;;;;;;26.52;11.45;;;;;;;;;;5072860;28;20028;-61
2023/01/24 04:54:33;;;;;;;29.05;11.90;;;;;;;;;;5070622;28;20078;-61
2023/01/24 04:56:59;;;;;;;20.80;10.63;;;;;;;;;;5070169;28;20149;-61
2023/01/24 04:59:25;;;;;;;23.08;11.45;;;;;;;;;;5105053;28;20669;-61
2023/01/24 05:01:52;;;;;;;23.45;10.88;;;;;;;;;;5069773;28;20048;-61
2023/01/24 05:04:39;;;;;;;28.73;12.38;;;;;;;;;;5065878;28;20024;-61
2023/01/24 05:07:05;;;;;;;24.30;12.02;;;;;;;;;;5063143;28;20033;-61
2023/01/24 05:09:33;;;;;;;24.00;11.43;;;;;;;;;;5069288;28;20035;-60
2023/01/24 05:12:03;;;;;;;23.48;11.68;;;;;;;;;;5070519;28;20484;-61
2023/01/24 05:14:30;;;;;;;26.40;13.48;;;;;;;;;;5070586;28;20150;-60
2023/01/24 05:16:57;;;;;;;27.45;12.70;;;;;;;;;;5064609;28;20025;-61
2023/01/24 05:19:23;;;;;;;26.73;12.52;;;;;;;;;;5070446;28;20040;-60
2023/01/24 05:21:49;;;;;;;26.63;12.75;;;;;;;;;;5069720;28;20027;-60
2023/01/24 05:24:15;;;;;;;26.20;12.38;;;;;;;;;;5069411;28;20510;-61
2023/01/24 05:26:41;;;;;;;25.27;14.02;;;;;;;;;;5069003;28;20024;-61
2023/01/24 05:29:09;;;;;;;25.45;14.75;;;;;;;;;;5068596;28;20029;-60
2023/01/24 05:31:35;;;;;;;26.13;13.55;;;;;;;;;;5068550;28;20033;-60
2023/01/24 05:34:05;;;;;;;31.38;13.27;;;;;;;;;;5068953;28;20454;-60
2023/01/24 05:36:31;;;;;;;29.40;13.82;;;;;;;;;;5069382;28;20143;-60
2023/01/24 05:38:58;;;;;;;28.00;13.65;;;;;;;;;;5070479;28;20021;-60
2023/01/24 05:41:25;;;;;;;27.05;14.32;;;;;;;;;;5064354;28;20485;-63
2023/01/24 05:43:53;;;;;;;30.52;15.60;;;;;;;;;;5069539;28;20020;-61
2023/01/24 05:46:24;;;;;;;27.88;14.18;;;;;;;;;;5069505;28;20040;-61
2023/01/24 05:49:12;;;;;;;31.23;14.45;;;;;;;;;;5102700;28;20521;-60
2023/01/24 05:51:38;;;;;;;29.02;13.55;;;;;;;;;;5103672;28;20060;-60
2023/01/24 05:54:05;;;;;;;33.50;15.15;;;;;;;;;;5073410;28;20587;-60
2023/01/24 05:57:10;;;;;;;34.30;15.32;;;;;;;;;;5060731;28;20410;-61
2023/01/24 05:59:56;;;;;;;32.80;16.08;;;;;;;;;;5056950;28;20052;-60
2023/01/24 06:02:22;;;;;;;30.63;15.65;;;;;;;;;;5043482;28;20036;-60
2023/01/24 06:04:49;;;;;;;36.00;17.20;;;;;;;;;;5070615;28;20029;-60
2023/01/24 06:07:16;;;;;;;29.38;15.68;;;;;;;;;;5050314;28;20538;-61
2023/01/24 06:09:42;;;;;;;35.08;17.80;;;;;;;;;;5048297;28;20033;-61
2023/01/24 06:12:09;;;;;;;29.88;16.75;;;;;;;;;;5063906;28;20029;-61
2023/01/24 06:14:35;;;;;;;34.92;16.77;;;;;;;;;;5052142;28;20032;-61
2023/01/24 06:17:01;;;;;;;32.88;16.80;;;;;;;;;;5069497;28;20043;-61
2023/01/24 06:19:28;;;;;;;34.67;17.02;;;;;;;;;;5054034;28;20020;-61
2023/01/24 06:22:00;;;;;;;34.28;17.10;;;;;;;;;;5053771;28;20522;-61
2023/01/24 06:24:33;;;;;;;34.38;18.02;;;;;;;;;;5053270;28;20040;-61
2023/01/24 06:27:09;;;;;;;34.95;17.02;;;;;;;;;;5053397;28;20043;-60
2023/01/24 06:29:35;;;;;;;32.67;15.77;;;;;;;;;;5070779;28;20090;-61
2023/01/24 06:32:04;;;;;;;36.50;16.75;;;;;;;;;;5071407;28;20025;-61
2023/01/24 06:34:46;;;;;;;38.15;17.05;;;;;;;;;;5072041;28;20070;-61
2023/01/24 06:37:21;;;;;;;30.77;16.17;;;;;;;;;;5068873;28;20462;-60
2023/01/24 06:39:52;;;;;;;33.60;17.88;;;;;;;;;;5069536;28;20032;-61
2023/01/24 06:42:19;;;;;;;32.72;17.17;;;;;;;;;;5066473;28;20107;-62
2023/01/24 06:44:45;;;;;;;36.60;16.85;;;;;;;;;;5084705;28;20032;-62
2023/01/24 06:47:12;;;;;;;36.15;17.92;;;;;;;;;;5089922;28;20130;-61
2023/01/24 06:49:39;;;;;;;29.60;16.67;;;;;;;;;;5092133;28;20020;-61
2023/01/24 06:52:05;;;;;;;30.23;17.52;;;;;;;;;;5094088;28;20024;-61
2023/01/24 06:54:31;;;;;;;24.85;16.70;;;;;;;;;;5094003;28;20485;-62
2023/01/24 06:56:57;;;;;;;31.45;17.27;;;;;;;;;;5093890;28;20059;-62
2023/01/24 06:59:23;;;;;;;30.98;17.08;;;;;;;;;;5093847;28;20478;-61
2023/01/24 07:01:50;;;;;;;28.08;15.85;;;;;;;;;;5093885;28;20028;-61
2023/01/24 07:04:16;;;;;;;28.35;15.05;;;;;;;;;;5083089;28;20130;-61
2023/01/24 07:06:42;;;;;;;23.92;15.25;;;;;;;;;;5081079;28;20094;-61
2023/01/24 07:09:09;;;;;;;30.27;15.48;;;;;;;;;;5069323;28;20027;-61
2023/01/24 07:11:35;;;;;;;27.67;14.45;;;;;;;;;;5078716;28;20105;-61
2023/01/24 07:14:01;;;;;;;29.35;13.63;;;;;;;;;;5073186;28;20385;-61
2023/01/24 07:16:27;;;;;;;24.33;12.45;;;;;;;;;;5077279;28;20021;-61
2023/01/24 07:18:53;;;;;;;25.40;11.10;;;;;;;;;;5077080;28;20017;-61
2023/01/24 07:21:20;;;;;;;23.02;12.45;;;;;;;;;;5064326;28;20028;-61
2023/01/24 07:23:47;;;;;;;25.70;13.48;;;;;;;;;;5059536;28;20039;-61
2023/01/24 07:26:13;;;;;;;31.90;13.43;;;;;;;;;;5069248;28;20031;-61
2023/01/24 07:28:40;;;;;;;32.88;13.30;;;;;;;;;;5076284;28;20095;-61
2023/01/24 07:31:06;;;;;;;21.42;12.55;;;;;;;;;;5076025;28;20025;-61
2023/01/24 07:33:33;;;;;;;26.38;13.52;;;;;;;;;;5052844;28;20056;-61
2023/01/24 07:35:59;;;;;;;25.55;14.85;;;;;;;;;;5065485;28;20045;-61
2023/01/24 07:38:25;;;;;;;28.60;15.55;;;;;;;;;;5073055;28;20016;-61
2023/01/24 07:40:52;;;;;;;33.60;14.48;;;;;;;;;;5072403;28;20021;-61
2023/01/24 07:43:20;;;;;;;29.13;16.00;;;;;;;;;;5073041;28;20028;-62
2023/01/24 07:45:46;;;;;;;26.08;16.38;;;;;;;;;;5072743;28;20032;-61
2023/01/24 07:48:12;;;;;;;26.33;15.35;;;;;;;;;;5072755;28;20032;-61
2023/01/24 07:50:38;;;;;;;30.67;14.35;;;;;;;;;;5072669;28;20035;-61
2023/01/24 07:53:05;;;;;;;27.08;14.20;;;;;;;;;;5072690;28;20036;-61
2023/01/24 07:55:31;;;;;;;34.55;15.20;;;;;;;;;;5072213;28;20029;-61
2023/01/24 07:57:58;;;;;;;25.52;14.30;;;;;;;;;;5072734;28;20012;-61
2023/01/24 08:00:24;;;;;;;26.55;13.40;;;;;;;;;;5072733;28;20028;-61
2023/01/24 08:02:50;;;;;;;30.00;14.07;;;;;;;;;;5072640;28;20040;-61
2023/01/24 08:05:16;;;;;;;32.25;15.20;;;;;;;;;;5072586;28;20032;-61
2023/01/24 08:07:43;;;;;;;32.80;14.77;;;;;;;;;;5072445;28;20434;-61
2023/01/24 08:10:09;;;;;;;28.52;14.43;;;;;;;;;;5071972;28;20032;-61
2023/01/24 08:12:35;;;;;;;27.17;14.63;;;;;;;;;;5072536;28;20063;-61
2023/01/24 08:15:01;;;;;;;27.10;13.63;;;;;;;;;;5072175;28;20028;-61
2023/01/24 08:17:27;;;;;;;27.00;15.07;;;;;;;;;;5071939;28;20017;-61
2023/01/24 08:19:53;;;;;;;30.98;15.52;;;;;;;;;;5072298;28;20024;-61
2023/01/24 08:22:19;;;;;;;24.42;13.18;;;;;;;;;;5072422;28;20099;-61
2023/01/24 08:24:46;;;;;;;28.63;14.90;;;;;;;;;;5071811;28;20085;-61
2023/01/24 08:27:12;;;;;;;23.45;14.60;;;;;;;;;;5072347;28;20029;-61
2023/01/24 08:29:38;;;;;;;33.20;13.95;;;;;;;;;;5072112;28;20056;-61
2023/01/24 08:32:04;;;;;;;23.10;12.27;;;;;;;;;;5072085;28;20575;-61
2023/01/24 08:34:30;;;;;;;26.90;13.77;;;;;;;;;;5072278;28;20032;-61
2023/01/24 08:36:56;;;;;;;21.98;13.32;;;;;;;;;;5071901;28;20051;-61
2023/01/24 08:39:22;;;;;;;29.52;13.70;;;;;;;;;;5071880;28;20330;-61
2023/01/24 08:41:48;;;;;;;26.58;13.50;;;;;;;;;;5072049;28;20394;-61
2023/01/24 08:44:15;;;;;;;26.33;13.73;;;;;;;;;;5072082;28;20037;-61
2023/01/24 08:46:41;;;;;;;24.52;13.18;;;;;;;;;;5071931;28;20035;-61
2023/01/24 08:49:08;;;;;;;25.58;13.68;;;;;;;;;;5072289;28;20028;-61
2023/01/24 08:51:34;;;;;;;24.83;13.95;;;;;;;;;;5071844;28;20079;-61
2023/01/24 08:54:00;;;;;;;29.92;16.33;;;;;;;;;;5071563;28;20028;-61
2023/01/24 08:56:26;;;;;;;28.63;15.50;;;;;;;;;;5072116;28;20047;-61
2023/01/24 08:58:52;;;;;;;28.45;15.15;;;;;;;;;;5071727;28;20048;-62
2023/01/24 09:01:20;;;;;;;31.10;16.00;;;;;;;;;;5072059;28;20040;-61
2023/01/24 09:03:46;;;;;;;29.77;15.25;;;;;;;;;;5071686;28;20055;-61
2023/01/24 09:06:14;;;;;;;31.88;16.75;;;;;;;;;;5071927;28;20031;-61
2023/01/24 09:08:40;;;;;;;31.65;15.85;;;;;;;;;;5071528;28;20037;-61
2023/01/24 09:11:06;;;;;;;26.23;14.40;;;;;;;;;;5071969;28;20044;-61
2023/01/24 09:13:32;;;;;;;31.00;17.83;;;;;;;;;;5071607;28;20112;-62
2023/01/24 09:15:59;;;;;;;30.50;15.15;;;;;;;;;;5071789;28;20025;-61
2023/01/24 09:18:25;;;;;;;31.10;14.88;;;;;;;;;;5071946;28;20056;-61
2023/01/24 09:20:51;;;;;;;27.67;14.25;;;;;;;;;;5071639;28;20017;-61
2023/01/24 09:23:17;;;;;;;34.95;15.70;;;;;;;;;;5071252;28;20025;-61
2023/01/24 09:25:49;;;;;;;26.30;15.02;;;;;;;;;;5071527;28;20029;-61
2023/01/24 09:28:18;;;;;;;29.20;15.77;;;;;;;;;;5074929;28;20473;-61
2023/01/24 09:30:44;;;;;;;31.60;17.60;;;;;;;;;;5075201;28;20037;-61
2023/01/24 09:33:10;;;;;;;35.65;16.85;;;;;;;;;;5075500;28;20430;-61
2023/01/24 09:35:36;;;;;;;34.55;16.90;;;;;;;;;;5075074;28;20417;-61
2023/01/24 09:38:03;;;;;;;32.70;16.42;;;;;;;;;;5075143;28;20029;-61
2023/01/24 09:40:45;;;;;;;30.67;16.42;;;;;;;;;;5074085;28;20474;-61
2023/01/24 09:43:31;;;;;;;29.80;15.38;;;;;;;;;;5075457;28;20066;-61
2023/01/24 09:45:57;;;;;;;36.20;17.42;;;;;;;;;;5075057;28;20036;-62
2023/01/24 09:48:23;;;;;;;34.97;16.17;;;;;;;;;;5075271;28;20103;-61
2023/01/24 09:50:51;;;;;;;28.40;16.55;;;;;;;;;;5074433;28;20039;-61
2023/01/24 09:53:23;;;;;;;29.50;15.88;;;;;;;;;;5075053;28;20389;-62
2023/01/24 09:55:50;;;;;;;30.33;15.45;;;;;;;;;;5075071;28;20031;-61
2023/01/24 09:58:18;;;;;;;36.03;16.85;;;;;;;;;;5075201;28;20355;-61
2023/01/24 10:00:45;;;;;;;28.17;17.70;;;;;;;;;;5074807;28;20052;-61
2023/01/24 10:03:20;;;;;;;32.47;16.40;;;;;;;;;;5075008;28;20024;-61
2023/01/24 10:05:53;;;;;;;29.83;16.60;;;;;;;;;;5074365;28;20029;-61
2023/01/24 10:08:28;;;;;;;31.55;16.40;;;;;;;;;;5074985;28;20036;-61
2023/01/24 10:10:57;;;;;;;29.83;15.98;;;;;;;;;;5074493;28;20051;-61
2023/01/24 10:13:29;;;;;;;41.17;17.10;;;;;;;;;;5074783;28;20024;-61
2023/01/24 10:15:59;;;;;;;30.08;15.88;;;;;;;;;;5074601;28;20123;-61
2023/01/24 10:18:35;;;;;;;31.15;14.45;;;;;;;;;;5074909;28;20031;-61
2023/01/24 10:21:04;;;;;;;29.13;14.18;;;;;;;;;;5074330;28;20470;-62
2023/01/24 10:23:33;;;;;;;26.20;14.50;;;;;;;;;;5074699;28;20029;-61
2023/01/24 10:26:04;;;;;;;24.83;14.70;;;;;;;;;;5074378;28;20398;-61
2023/01/24 10:28:35;;;;;;;27.05;15.32;;;;;;;;;;5074788;28;20040;-61
2023/01/24 10:31:06;;;;;;;25.80;14.50;;;;;;;;;;5074321;28;20037;-61
2023/01/24 10:33:35;;;;;;;28.80;15.80;;;;;;;;;;5074357;28;20036;-61
2023/01/24 10:36:01;;;;;;;25.50;15.07;;;;;;;;;;5073614;28;20068;-61
2023/01/24 10:38:28;;;;;;;25.25;14.50;;;;;;;;;;5073646;28;20024;-61
2023/01/24 10:40:54;;;;;;;27.98;14.63;;;;;;;;;;5074170;28;20020;-61
2023/01/24 10:43:23;;;;;;;30.60;15.13;;;;;;;;;;5074238;28;20086;-62
2023/01/24 10:45:52;;;;;;;28.67;15.80;;;;;;;;;;5074054;28;20024;-61
2023/01/24 10:48:18;;;;;;;32.33;15.38;;;;;;;;;;5074122;28;20036;-61
2023/01/24 10:50:45;;;;;;;23.23;14.55;;;;;;;;;;5073691;28;20111;-61
2023/01/24 10:53:13;;;;;;;28.20;14.75;;;;;;;;;;5074170;28;20025;-61
2023/01/24 10:55:39;;;;;;;26.25;13.48;;;;;;;;;;5073768;28;20036;-61
2023/01/24 10:58:26;;;;;;;36.30;16.33;;;;;;;;;;5073953;28;20031;-62
2023/01/24 11:00:57;;;;;;;30.98;16.88;;;;;;;;;;5073818;28;20032;-62
2023/01/24 11:03:26;;;;;;;29.40;14.80;;;;;;;;;;5073437;28;20038;-61
2023/01/24 11:05:53;;;;;;;28.02;16.13;;;;;;;;;;5073575;28;20028;-61
2023/01/24 11:08:27;;;;;;;29.92;17.02;;;;;;;;;;5073992;28;20032;-61
2023/01/24 11:10:54;;;;;;;30.00;15.85;;;;;;;;;;5073767;28;20028;-61
2023/01/24 11:13:23;;;;;;;31.65;14.63;;;;;;;;;;5073644;28;20520;-61
2023/01/24 11:15:52;;;;;;;29.77;16.45;;;;;;;;;;5073618;28;20048;-61
2023/01/24 11:18:21;;;;;;;30.50;14.75;;;;;;;;;;5073174;28;20025;-62
2023/01/24 11:20:47;;;;;;;30.55;16.17;;;;;;;;;;5073334;28;20020;-62
2023/01/24 11:23:13;;;;;;;30.85;15.25;;;;;;;;;;5073384;28;20033;-61
2023/01/24 11:26:01;;;;;;;30.75;16.13;;;;;;;;;;5073503;28;20036;-61
2023/01/24 11:28:34;;;;;;;24.95;13.55;;;;;;;;;;5087030;28;20032;-61
2023/01/24 11:31:03;;;;;;;27.90;14.10;;;;;;;;;;5083524;28;20029;-61
2023/01/24 11:33:41;;;;;;;23.35;14.27;;;;;;;;;;5058570;28;20598;-61
2023/01/24 11:36:16;;;;;;;28.13;15.02;;;;;;;;;;5069049;28;20410;-61
2023/01/24 11:38:43;;;;;;;29.40;14.20;;;;;;;;;;5070197;28;20103;-61
2023/01/24 11:41:20;;;;;;;26.48;14.30;;;;;;;;;;5071610;28;20024;-61
2023/01/24 11:43:55;;;;;;;27.98;13.13;;;;;;;;;;5071491;28;20032;-61
2023/01/24 11:46:22;;;;;;;26.65;13.90;;;;;;;;;;5069825;28;20024;-61
2023/01/24 11:48:53;;;;;;;25.90;14.57;;;;;;;;;;5071293;28;20056;-61
2023/01/24 11:51:22;;;;;;;25.85;12.98;;;;;;;;;;5069384;28;20432;-61
2023/01/24 11:53:48;;;;;;;26.52;12.63;;;;;;;;;;5071379;28;20024;-61
2023/01/24 11:56:23;;;;;;;23.63;13.40;;;;;;;;;;5071546;28;20342;-61
2023/01/24 11:58:49;;;;;;;27.73;13.88;;;;;;;;;;5071282;28;20067;-61
2023/01/24 12:01:20;;;;;;;33.30;15.68;;;;;;;;;;5072367;28;20070;-61
2023/01/24 12:04:03;;;;;;;28.83;14.30;;;;;;;;;;5072266;28;20036;-61
2023/01/24 12:06:37;;;;;;;28.45;13.63;;;;;;;;;;5091246;28;20115;-61
2023/01/24 12:09:03;;;;;;;30.48;14.15;;;;;;;;;;5087484;28;20028;-61
2023/01/24 12:11:32;;;;;;;27.83;14.10;;;;;;;;;;5077972;28;20024;-61
2023/01/24 12:14:04;;;;;;;28.50;13.48;;;;;;;;;;5059896;28;20024;-61
2023/01/24 12:16:42;;;;;;;25.92;14.05;;;;;;;;;;5054488;28;20463;-61
2023/01/24 12:19:27;;;;;;;20.30;12.27;;;;;;;;;;5071491;28;20401;-61
2023/01/24 12:21:57;;;;;;;24.70;12.65;;;;;;;;;;5071643;28;20040;-61
2023/01/24 12:24:27;;;;;;;25.98;12.90;;;;;;;;;;5053932;28;20091;-61
2023/01/24 12:26:57;;;;;;;21.65;12.38;;;;;;;;;;5068685;28;20146;-61
2023/01/24 12:29:27;;;;;;;24.85;14.30;;;;;;;;;;5060897;28;20029;-61
2023/01/24 12:32:12;;;;;;;28.23;14.75;;;;;;;;;;5056697;28;20055;-61
2023/01/24 12:34:44;;;;;;;22.85;13.88;;;;;;;;;;5071907;28;20016;-61
2023/01/24 12:37:20;;;;;;;25.98;14.70;;;;;;;;;;5079782;28;20056;-61
2023/01/24 12:40:08;;;;;;;21.65;13.93;;;;;;;;;;5072236;28;20524;-61
2023/01/24 12:42:54;;;;;;;28.45;13.65;;;;;;;;;;5070117;28;20032;-61
2023/01/24 12:45:43;;;;;;;29.02;14.30;;;;;;;;;;5064896;28;20036;-61
2023/01/24 12:48:18;;;;;;;23.83;13.98;;;;;;;;;;5059841;28;20097;-61
2023/01/24 12:50:50;;;;;;;23.63;12.55;;;;;;;;;;5064550;28;20031;-61
2023/01/24 12:53:32;;;;;;;23.95;13.38;;;;;;;;;;5072238;28;20031;-61
2023/01/24 12:55:58;;;;;;;26.17;13.13;;;;;;;;;;5071664;28;20025;-61
2023/01/24 12:58:30;;;;;;;27.80;14.80;;;;;;;;;;5071942;28;20021;-61
2023/01/24 13:01:09;;;;;;;31.00;14.60;;;;;;;;;;5071625;28;20037;-61
2023/01/24 13:03:55;;;;;;;24.23;13.57;;;;;;;;;;5075738;28;20037;-61
2023/01/24 13:06:25;;;;;;;21.13;11.27;;;;;;;;;;5075864;28;20474;-61
2023/01/24 13:08:57;;;;;;;26.38;12.05;;;;;;;;;;5075838;28;20033;-61
2023/01/24 13:11:27;;;;;;;28.02;13.18;;;;;;;;;;5076010;28;20029;-61
2023/01/24 13:14:00;;;;;;;25.45;12.32;;;;;;;;;;5075745;28;20040;-61
2023/01/24 13:16:44;;;;;;;24.70;11.77;;;;;;;;;;5076037;28;20573;-61
2023/01/24 13:19:29;;;;;;;20.02;11.38;;;;;;;;;;5075475;28;20128;-61
2023/01/24 13:22:14;;;;;;;22.55;12.05;;;;;;;;;;5075755;28;20036;-61
2023/01/24 13:24:40;;;;;;;29.42;12.50;;;;;;;;;;5075726;28;20115;-61
2023/01/24 13:27:15;;;;;;;26.25;13.00;;;;;;;;;;5075401;28;20463;-61
2023/01/24 13:29:54;;;;;;;25.52;10.95;;;;;;;;;;5075459;28;20033;-61
2023/01/24 13:32:21;;;;;;;21.58;11.50;;;;;;;;;;5075358;28;20037;-61
2023/01/24 13:34:50;;;;;;;23.88;12.43;;;;;;;;;;5075417;28;20027;-61
2023/01/24 13:37:31;;;;;;;24.20;12.95;;;;;;;;;;5075192;28;20047;-61
2023/01/24 13:40:02;;;;;;;25.73;14.20;;;;;;;;;;5075390;28;20027;-61
2023/01/24 13:42:37;;;;;;;22.52;11.95;;;;;;;;;;5075052;28;20032;-61
2023/01/24 13:45:21;;;;;;;23.67;12.80;;;;;;;;;;5075336;28;20039;-61
2023/01/24 13:47:48;;;;;;;20.33;11.60;;;;;;;;;;5075325;28;20082;-61
2023/01/24 13:50:14;;;;;;;25.42;12.25;;;;;;;;;;5075090;28;20031;-61
2023/01/24 13:52:42;;;;;;;20.90;11.90;;;;;;;;;;5075248;28;20028;-61
2023/01/24 13:55:32;;;;;;;18.02;10.23;;;;;;;;;;5074860;28;20020;-61
2023/01/24 13:58:04;;;;;;;19.50;10.35;;;;;;;;;;5032570;28;20109;-61
2023/01/24 14:00:30;;;;;;;24.27;11.88;;;;;;;;;;5033215;28;20040;-61
2023/01/24 14:02:59;;;;;;;27.48;13.82;;;;;;;;;;5032879;28;20041;-61
2023/01/24 14:05:28;;;;;;;25.70;11.27;;;;;;;;;;5032676;28;20057;-61
2023/01/24 14:08:00;;;;;;;25.45;12.07;;;;;;;;;;5032994;28;20065;-61
2023/01/24 14:10:34;;;;;;;21.65;11.13;;;;;;;;;;5032877;28;20030;-61
2023/01/24 14:13:00;;;;;;;28.35;11.82;;;;;;;;;;5031562;28;20047;-61
2023/01/24 14:15:36;;;;;;;25.23;11.95;;;;;;;;;;5032145;28;20041;-61
2023/01/24 14:18:03;;;;;;;18.98;11.13;;;;;;;;;;5032667;28;20022;-61
2023/01/24 14:20:45;;;;;;;27.80;13.20;;;;;;;;;;5032510;28;20109;-61
2023/01/24 14:23:15;;;;;;;25.67;11.95;;;;;;;;;;5032499;28;20038;-61
2023/01/24 14:25:50;;;;;;;22.33;11.63;;;;;;;;;;5032718;28;20041;-61
2023/01/24 14:28:29;;;;;;;22.05;11.98;;;;;;;;;;5032073;28;20049;-61
2023/01/24 14:30:56;;;;;;;22.65;11.75;;;;;;;;;;5032505;28;20035;-61
2023/01/24 14:33:40;;;;;;;23.65;11.55;;;;;;;;;;5032263;28;20034;-61
2023/01/24 14:36:25;;;;;;;19.17;9.82;;;;;;;;;;5072987;28;20444;-61
2023/01/24 14:39:10;;;;;;;30.40;13.30;;;;;;;;;;5075025;28;20028;-62
2023/01/24 14:41:36;;;;;;;21.40;11.80;;;;;;;;;;5074427;28;20389;-62
2023/01/24 14:44:02;;;;;;;20.65;11.23;;;;;;;;;;5073590;28;20025;-62
2023/01/24 14:46:29;;;;;;;20.88;10.90;;;;;;;;;;5069556;28;20150;-62
2023/01/24 14:48:55;;;;;;;20.67;11.00;;;;;;;;;;5075419;28;20075;-62
2023/01/24 14:51:24;;;;;;;25.20;11.43;;;;;;;;;;5079386;28;20074;-62
2023/01/24 14:53:52;;;;;;;24.88;12.93;;;;;;;;;;5082898;28;20022;-61
2023/01/24 14:56:18;;;;;;;29.38;12.43;;;;;;;;;;5083217;28;20084;-62
2023/01/24 14:58:44;;;;;;;24.77;12.70;;;;;;;;;;5085025;28;20500;-62
2023/01/24 15:01:32;;;;;;;25.23;12.52;;;;;;;;;;5084763;28;20067;-62
2023/01/24 15:03:59;;;;;;;23.95;12.38;;;;;;;;;;5080692;28;20074;-62
2023/01/24 15:06:26;;;;;;;31.13;13.27;;;;;;;;;;5083977;28;20027;-62
2023/01/24 15:08:57;;;;;;;31.27;12.98;;;;;;;;;;5088079;28;20036;-62